Henderson, Maryland
Current Conditions -  °F | °C
As of 2:58 AM on Friday 24 Oct 2014 (Local Time) from KDOV Reporting Station
Overcast Overcast  
Wind Chill: 56°   Ceiling: 4300
Heat Index: 56°   Visibility: 10mi
Dew Point: 45°   Wind: 10mph
Humidity: 66%   Direction: 300°WNW
Pressure: 29.82"   Gusts: NA
Location:  39.07°N, 75.77°W
Report Text: KDOV 240658Z AUTO 30009KT 10SM OVC043 13/07 A2982 RMK AO2 SLP101 T01340072
Loading
Personal Weather Stations






























Interactive Weather Map
Tropical Storm Tracking
New forecast layout! Learn more

10-Day Weather Forecast

Advertisements
Track Severe Weather on mobile